Time;durP1;ratioP1;P1;durP2;ratioP2;P2;SDS_P1;SDS_P2;PMS_P1;PMS_P2;Temp;Humidity;BMP_temperature;BMP_pressure;BME280_temperature;BME280_humidity;BME280_pressure;Samples;Min_cycle;Max_cycle;Signal;HPM_P1;HPM_P2
2022/03/15 00:02:15;;;;;;;4.97;2.63;;;;;;;5.00;73.96;96668.28;5020126;28;20182;-79
2022/03/15 00:04:40;;;;;;;5.30;2.67;;;;;;;4.98;73.88;96665.78;5036992;28;20657;-79
2022/03/15 00:07:10;;;;;;;4.73;2.27;;;;;;;4.94;74.22;96658.31;5054457;28;20243;-79
2022/03/15 00:09:35;;;;;;;9.30;2.80;;;;;;;4.89;74.30;96661.16;5036702;28;20228;-79
2022/03/15 00:12:01;;;;;;;4.23;2.70;;;;;;;4.85;74.44;96662.22;5036512;28;20209;-79
2022/03/15 00:14:27;;;;;;;7.70;3.50;;;;;;;4.82;74.75;96658.09;5020040;28;20197;-79
2022/03/15 00:16:52;;;;;;;3.93;2.30;;;;;;;4.81;75.02;96663.31;5019039;28;20713;-79
2022/03/15 00:19:18;;;;;;;4.57;2.13;;;;;;;4.78;75.16;96669.47;5020301;28;20180;-78
2022/03/15 00:21:43;;;;;;;5.83;2.30;;;;;;;4.77;74.88;96662.69;5036140;28;20173;-79
2022/03/15 00:24:09;;;;;;;4.50;2.57;;;;;;;4.74;75.04;96660.25;5020104;28;20201;-79
2022/03/15 00:26:35;;;;;;;7.13;3.07;;;;;;;4.75;75.07;96661.06;5037106;28;20543;-79
2022/03/15 00:29:00;;;;;;;9.17;2.77;;;;;;;4.76;75.33;96661.00;5019869;28;20186;-78
2022/03/15 00:31:25;;;;;;;5.13;2.60;;;;;;;4.76;75.20;96658.41;5035805;28;20243;-79
2022/03/15 00:33:50;;;;;;;4.93;2.37;;;;;;;4.81;75.49;96661.56;5036600;28;20198;-79
2022/03/15 00:36:16;;;;;;;9.33;3.37;;;;;;;4.79;75.24;96655.69;5054185;28;20205;-78
2022/03/15 00:38:42;;;;;;;4.63;2.67;;;;;;;4.90;75.29;96657.66;5019851;28;20255;-79
2022/03/15 00:41:08;;;;;;;5.90;2.57;;;;;;;4.87;74.82;96651.88;5019311;28;20205;-77
2022/03/15 00:43:33;;;;;;;4.47;2.37;;;;;;;4.83;75.04;96651.19;5035967;28;20596;-79
2022/03/15 00:45:58;;;;;;;5.30;2.57;;;;;;;4.87;75.32;96646.72;5054266;28;20182;-79
2022/03/15 00:48:24;;;;;;;6.27;2.80;;;;;;;4.92;74.89;96639.56;5035940;28;20178;-78
2022/03/15 00:50:49;;;;;;;5.80;2.53;;;;;;;4.92;74.70;96629.25;5035928;28;20185;-78
2022/03/15 00:53:14;;;;;;;8.10;2.93;;;;;;;4.93;75.01;96629.16;5018598;28;20202;-78
2022/03/15 00:55:40;;;;;;;8.27;2.83;;;;;;;4.95;74.89;96629.09;5035832;28;20189;-79
2022/03/15 00:58:05;;;;;;;3.90;2.97;;;;;;;4.94;74.78;96632.56;5019361;28;20178;-79
2022/03/15 01:00:31;;;;;;;4.27;2.40;;;;;;;4.99;74.95;96626.25;5035992;28;20187;-80
2022/03/15 01:02:57;;;;;;;3.20;2.27;;;;;;;4.94;74.87;96612.81;5035230;28;20174;-80
2022/03/15 01:05:22;;;;;;;4.57;2.53;;;;;;;4.91;75.07;96619.88;5019409;28;20185;-79
2022/03/15 01:07:48;;;;;;;4.90;2.57;;;;;;;4.89;74.91;96614.81;5035913;28;20201;-79
2022/03/15 01:10:13;;;;;;;7.07;2.70;;;;;;;4.80;75.57;96617.91;5035545;28;20188;-78
2022/03/15 01:12:38;;;;;;;5.10;2.57;;;;;;;4.75;75.83;96620.72;5035340;28;20174;-79
2022/03/15 01:15:06;;;;;;;5.07;2.30;;;;;;;4.75;75.70;96620.72;5035563;28;20205;-79
2022/03/15 01:17:32;;;;;;;5.80;2.57;;;;;;;4.84;76.06;96617.63;5038646;28;20253;-78
2022/03/15 01:19:57;;;;;;;3.63;2.20;;;;;;;4.87;75.64;96620.97;4991757;28;20301;-79
2022/03/15 01:22:23;;;;;;;5.83;2.50;;;;;;;4.88;75.81;96620.88;5015060;28;20174;-79
2022/03/15 01:24:48;;;;;;;4.73;2.43;;;;;;;4.80;75.87;96620.50;5032109;28;20209;-79
2022/03/15 01:27:15;;;;;;;2.70;2.33;;;;;;;4.74;75.72;96611.34;5032189;28;20166;-78
2022/03/15 01:29:40;;;;;;;7.00;2.50;;;;;;;4.83;75.71;96605.69;5032137;28;20228;-79
2022/03/15 01:32:06;;;;;;;8.93;2.80;;;;;;;4.76;75.79;96594.09;5014820;28;20265;-79
2022/03/15 01:34:31;;;;;;;4.67;2.57;;;;;;;4.72;75.95;96597.75;5015587;28;20204;-79
2022/03/15 01:36:58;;;;;;;7.33;2.83;;;;;;;4.73;76.29;96591.69;5031143;28;20810;-78
2022/03/15 01:39:23;;;;;;;6.43;4.20;;;;;;;4.75;76.04;96587.28;5029265;28;20182;-79
2022/03/15 01:41:49;;;;;;;7.63;2.60;;;;;;;4.75;76.31;96582.13;5034684;28;20196;-79
2022/03/15 01:44:15;;;;;;;5.30;2.67;;;;;;;4.74;75.94;96585.63;5035203;28;20572;-79
2022/03/15 01:46:41;;;;;;;4.97;2.60;;;;;;;4.88;75.80;96586.59;5035407;28;20185;-78
2022/03/15 01:49:06;;;;;;;6.20;2.70;;;;;;;4.83;75.69;96585.09;5018857;28;20550;-79
2022/03/15 01:51:31;;;;;;;6.33;2.90;;;;;;;4.86;76.04;96575.53;5034101;28;20247;-79
2022/03/15 01:53:57;;;;;;;4.83;2.77;;;;;;;4.89;76.04;96583.09;5034922;28;20575;-79
2022/03/15 01:56:23;;;;;;;5.87;3.07;;;;;;;4.86;75.91;96590.97;5052906;28;20198;-79
2022/03/15 01:58:49;;;;;;;6.17;2.93;;;;;;;4.89;75.88;96585.69;5034899;28;20587;-79
2022/03/15 02:01:14;;;;;;;5.63;2.60;;;;;;;4.98;75.69;96590.31;5034105;28;20227;-77
2022/03/15 02:03:39;;;;;;;4.97;2.50;;;;;;;5.00;75.73;96580.75;5034469;28;20198;-79
2022/03/15 02:06:05;;;;;;;5.20;2.53;;;;;;;5.02;75.22;96592.59;5034442;28;20181;-79
2022/03/15 02:08:31;;;;;;;3.97;2.67;;;;;;;5.05;75.27;96589.88;5034799;28;20174;-78
2022/03/15 02:10:56;;;;;;;6.87;3.07;;;;;;;4.98;75.05;96592.88;5034870;28;20645;-78
2022/03/15 02:13:22;;;;;;;6.33;3.00;;;;;;;5.01;75.50;96583.22;5034246;28;20208;-77
2022/03/15 02:15:47;;;;;;;6.17;2.30;;;;;;;5.03;75.37;96578.81;5038080;28;20528;-78
2022/03/15 02:18:12;;;;;;;6.33;2.57;;;;;;;5.07;75.06;96571.75;5036770;28;20174;-77
2022/03/15 02:20:38;;;;;;;7.57;2.63;;;;;;;5.04;74.94;96569.38;5038327;28;20174;-79
2022/03/15 02:23:03;;;;;;;5.47;2.30;;;;;;;5.00;75.19;96565.28;5036495;28;20227;-78
2022/03/15 02:25:28;;;;;;;8.23;3.43;;;;;;;5.02;75.10;96569.44;5036840;28;20649;-79
2022/03/15 02:27:54;;;;;;;8.20;2.70;;;;;;;4.99;74.73;96573.94;5036612;28;20235;-78
2022/03/15 02:30:21;;;;;;;8.47;2.63;;;;;;;5.04;74.92;96571.94;5036079;28;20171;-78
2022/03/15 02:32:47;;;;;;;4.33;2.40;;;;;;;5.05;74.63;96568.44;5013777;28;20182;-78
2022/03/15 02:35:16;;;;;;;7.60;2.40;;;;;;;5.05;74.44;96568.44;5014782;28;20195;-78
2022/03/15 02:37:43;;;;;;;3.67;2.10;;;;;;;5.04;74.84;96567.63;4997734;28;20209;-79
2022/03/15 02:40:09;;;;;;;12.50;2.63;;;;;;;5.03;74.81;96565.94;5014278;28;20171;-78
2022/03/15 02:42:35;;;;;;;4.80;2.70;;;;;;;5.01;75.07;96561.81;4997413;28;20210;-79
2022/03/15 02:45:00;;;;;;;7.80;2.80;;;;;;;5.06;74.78;96559.81;5014306;28;20187;-78
2022/03/15 02:47:26;;;;;;;7.93;3.00;;;;;;;5.06;74.38;96549.50;5019633;28;20170;-78
2022/03/15 02:49:51;;;;;;;3.77;2.53;;;;;;;5.10;74.56;96558.69;5010882;28;20190;-78
2022/03/15 02:52:17;;;;;;;5.47;2.73;;;;;;;5.14;74.57;96556.78;5027931;28;20181;-78
2022/03/15 02:54:43;;;;;;;7.00;2.67;;;;;;;5.23;74.38;96554.50;5024788;28;20576;-78
2022/03/15 02:57:10;;;;;;;6.20;2.20;;;;;;;5.24;74.13;96551.00;4999508;28;20229;-79
2022/03/15 02:59:42;;;;;;;10.73;3.07;;;;;;;5.19;74.25;96554.75;5000187;28;20245;-79
2022/03/15 03:02:08;;;;;;;6.33;2.87;;;;;;;5.14;74.45;96549.88;5015089;28;20159;-79
2022/03/15 03:04:33;;;;;;;6.13;2.80;;;;;;;5.14;74.67;96547.31;5015070;28;20281;-78
2022/03/15 03:07:01;;;;;;;4.93;2.53;;;;;;;5.22;74.10;96539.97;5015119;28;20690;-78
2022/03/15 03:09:27;;;;;;;11.20;2.67;;;;;;;5.17;73.86;96541.16;4998720;28;20231;-78
2022/03/15 03:11:52;;;;;;;5.60;2.43;;;;;;;5.21;74.39;96540.03;4997679;28;20182;-78
2022/03/15 03:14:18;;;;;;;6.63;2.30;;;;;;;5.18;73.84;96541.06;4998306;28;20198;-79
2022/03/15 03:16:43;;;;;;;4.10;2.33;;;;;;;5.25;74.03;96544.94;4996432;28;20221;-78
2022/03/15 03:19:09;;;;;;;4.83;2.87;;;;;;;5.27;73.59;96547.41;4998154;28;20282;-79
2022/03/15 03:21:36;;;;;;;6.40;2.30;;;;;;;5.30;73.27;96548.06;4997523;28;20182;-79
2022/03/15 03:24:06;;;;;;;6.23;2.30;;;;;;;5.35;73.12;96538.31;5031939;28;20187;-79
2022/03/15 03:26:32;;;;;;;6.67;2.33;;;;;;;5.35;72.77;96529.75;4998672;28;20274;-79
2022/03/15 03:28:59;;;;;;;7.13;2.53;;;;;;;5.33;72.72;96527.28;5015183;28;20185;-78
2022/03/15 03:31:25;;;;;;;4.23;2.53;;;;;;;5.32;72.85;96529.94;5013662;28;20193;-79
2022/03/15 03:33:50;;;;;;;4.70;2.20;;;;;;;5.28;72.88;96518.16;5020024;28;20194;-77
2022/03/15 03:36:16;;;;;;;6.27;2.80;;;;;;;5.32;72.92;96522.22;5019767;28;20212;-77
2022/03/15 03:38:42;;;;;;;6.83;2.30;;;;;;;5.31;72.67;96515.41;5037967;28;20174;-77
2022/03/15 03:41:07;;;;;;;4.07;1.97;;;;;;;5.28;72.33;96508.69;5021343;28;20236;-78
2022/03/15 03:43:32;;;;;;;6.60;2.40;;;;;;;5.35;72.28;96514.28;5021672;28;20222;-77
2022/03/15 03:45:58;;;;;;;6.17;2.20;;;;;;;5.31;71.33;96512.84;5037721;28;20228;-78
2022/03/15 03:48:24;;;;;;;6.80;2.30;;;;;;;5.36;71.51;96519.34;5037254;28;20179;-77
2022/03/15 03:50:50;;;;;;;9.70;2.70;;;;;;;5.44;71.66;96513.75;5021810;28;20174;-78
2022/03/15 03:53:17;;;;;;;4.60;2.43;;;;;;;5.40;71.22;96515.69;5011576;28;20188;-80
2022/03/15 03:55:42;;;;;;;4.30;1.93;;;;;;;5.39;71.23;96520.94;5018092;28;20278;-79
2022/03/15 03:58:07;;;;;;;3.57;1.93;;;;;;;5.48;70.94;96524.69;5017741;28;20670;-79
2022/03/15 04:00:33;;;;;;;6.00;2.40;;;;;;;5.44;70.94;96521.47;5017571;28;20542;-78
2022/03/15 04:02:58;;;;;;;6.20;1.93;;;;;;;5.49;70.31;96522.03;5000099;28;20538;-78
2022/03/15 04:05:25;;;;;;;5.00;1.97;;;;;;;5.50;70.48;96520.28;5000643;28;20186;-79
2022/03/15 04:07:51;;;;;;;4.80;2.40;;;;;;;5.44;70.24;96512.91;5000594;28;20178;-78
2022/03/15 04:10:18;;;;;;;4.27;2.20;;;;;;;5.48;69.75;96510.06;5034213;28;20555;-80
2022/03/15 04:12:44;;;;;;;4.93;1.83;;;;;;;5.54;69.46;96511.44;5017056;28;20531;-78
2022/03/15 04:15:09;;;;;;;5.63;1.83;;;;;;;5.52;69.17;96506.38;5017114;28;20202;-79
2022/03/15 04:17:35;;;;;;;5.40;2.40;;;;;;;5.56;68.98;96517.31;4999372;28;20210;-79
2022/03/15 04:20:01;;;;;;;6.77;1.90;;;;;;;5.58;68.52;96518.06;5000500;28;20217;-80
2022/03/15 04:22:26;;;;;;;4.53;1.70;;;;;;;5.64;68.33;96515.94;5016250;28;20178;-79
2022/03/15 04:24:51;;;;;;;3.33;1.50;;;;;;;5.72;68.34;96518.03;5034526;28;20229;-79
2022/03/15 04:27:17;;;;;;;6.50;2.00;;;;;;;5.64;67.91;96515.94;5000569;28;20543;-79
2022/03/15 04:29:42;;;;;;;4.40;2.10;;;;;;;5.60;68.23;96513.66;5000575;28;20248;-78
2022/03/15 04:32:08;;;;;;;4.53;1.93;;;;;;;5.66;67.79;96518.44;5016384;28;20189;-78
2022/03/15 04:34:34;;;;;;;6.40;1.87;;;;;;;5.59;67.93;96501.69;5000448;28;20294;-79
2022/03/15 04:36:59;;;;;;;4.60;1.87;;;;;;;5.60;68.02;96493.03;5000213;28;20203;-79
2022/03/15 04:39:25;;;;;;;7.10;4.70;;;;;;;5.63;67.53;96495.41;5000192;28;20300;-79
2022/03/15 04:41:50;;;;;;;8.30;5.30;;;;;;;5.68;67.34;96495.97;5016188;28;20664;-79
2022/03/15 04:44:16;;;;;;;6.13;3.03;;;;;;;5.58;67.37;96502.63;5034646;28;20813;-78
2022/03/15 04:46:42;;;;;;;5.90;3.90;;;;;;;5.59;67.11;96502.50;5016139;28;20170;-79
2022/03/15 04:49:07;;;;;;;4.63;2.10;;;;;;;5.57;66.04;96493.22;5016373;28;20193;-79
2022/03/15 04:51:33;;;;;;;5.03;1.80;;;;;;;5.61;66.05;96507.56;5015511;28;20189;-79
2022/03/15 04:53:58;;;;;;;4.53;1.70;;;;;;;5.61;65.53;96499.84;4999520;28;20222;-79
2022/03/15 04:56:23;;;;;;;3.37;1.67;;;;;;;5.64;65.97;96494.50;4999863;28;20202;-77
2022/03/15 04:58:49;;;;;;;4.30;1.33;;;;;;;5.67;65.42;96499.47;5016351;28;20543;-79
2022/03/15 05:01:14;;;;;;;7.23;2.90;;;;;;;5.63;65.42;96485.94;4999036;28;20181;-79
2022/03/15 05:03:39;;;;;;;5.93;3.07;;;;;;;5.66;65.14;96482.34;5016107;28;20230;-79
2022/03/15 05:06:05;;;;;;;6.63;2.50;;;;;;;5.68;65.21;96480.50;5016197;28;20189;-78
2022/03/15 05:08:30;;;;;;;3.70;1.90;;;;;;;5.68;65.17;96475.34;5015305;28;20186;-79
2022/03/15 05:11:08;;;;;;;6.37;2.07;;;;;;;5.66;64.85;96470.31;5015857;28;20255;-78
2022/03/15 05:13:40;;;;;;;4.57;1.57;;;;;;;5.63;64.61;96477.38;5018504;28;20202;-78
2022/03/15 05:16:10;;;;;;;3.40;1.43;;;;;;;5.63;64.17;96478.19;5016116;28;20177;-79
2022/03/15 05:18:36;;;;;;;5.20;1.83;;;;;;;5.60;64.14;96475.81;5014860;28;20258;-80
2022/03/15 05:21:05;;;;;;;2.07;1.40;;;;;;;5.64;64.16;96474.69;5015922;28;20604;-78
2022/03/15 05:23:30;;;;;;;4.53;1.50;;;;;;;5.65;63.83;96472.94;5015339;28;20198;-78
2022/03/15 05:25:56;;;;;;;6.40;1.73;;;;;;;5.69;63.51;96474.44;5015534;28;20175;-78
2022/03/15 05:28:21;;;;;;;3.47;1.63;;;;;;;5.68;63.59;96467.63;5015700;28;20178;-78
2022/03/15 05:30:46;;;;;;;6.07;4.50;;;;;;;5.67;63.66;96466.78;4998980;28;20662;-79
2022/03/15 05:33:12;;;;;;;10.17;6.40;;;;;;;5.64;63.77;96466.97;5015024;28;20186;-78
2022/03/15 05:35:37;;;;;;;10.50;6.03;;;;;;;5.74;63.30;96467.22;4998627;28;20175;-78
2022/03/15 05:38:02;;;;;;;13.57;5.70;;;;;;;5.73;63.25;96475.88;4999115;28;20210;-78
2022/03/15 05:40:28;;;;;;;7.60;3.90;;;;;;;5.76;63.28;96464.56;4999000;28;20588;-80
2022/03/15 05:42:54;;;;;;;4.77;2.27;;;;;;;5.80;62.68;96458.28;4998497;28;20243;-79
2022/03/15 05:45:19;;;;;;;4.77;1.63;;;;;;;5.76;63.12;96464.56;5015521;28;20218;-80
2022/03/15 05:47:44;;;;;;;3.93;1.50;;;;;;;5.75;63.10;96450.84;4997416;28;20214;-79
2022/03/15 05:50:10;;;;;;;3.47;1.60;;;;;;;5.78;62.70;96450.66;5015621;28;20212;-79
2022/03/15 05:52:35;;;;;;;3.37;1.30;;;;;;;5.87;63.10;96441.53;4998154;28;20673;-78
2022/03/15 05:55:00;;;;;;;4.17;1.77;;;;;;;5.86;62.63;96448.44;5014975;28;20206;-79
2022/03/15 05:57:25;;;;;;;5.97;2.10;;;;;;;5.92;61.95;96445.50;4997671;28;20280;-77
2022/03/15 05:59:51;;;;;;;3.50;1.67;;;;;;;6.04;61.73;96455.94;4999053;28;20183;-79
2022/03/15 06:02:16;;;;;;;4.23;1.77;;;;;;;6.06;61.81;96456.69;4998123;28;20600;-79
2022/03/15 06:04:41;;;;;;;4.23;1.63;;;;;;;6.09;61.49;96453.88;4999914;28;20702;-78
2022/03/15 06:07:07;;;;;;;5.87;1.70;;;;;;;6.12;61.64;96454.53;4998578;28;20582;-77
2022/03/15 06:09:32;;;;;;;4.43;1.43;;;;;;;6.12;61.76;96456.28;5014758;28;20179;-77
2022/03/15 06:11:58;;;;;;;4.87;1.70;;;;;;;6.19;61.39;96449.81;5015846;28;20195;-79
2022/03/15 06:14:23;;;;;;;5.23;1.60;;;;;;;6.21;61.43;96448.78;4999152;28;20190;-79
2022/03/15 06:16:49;;;;;;;3.93;1.60;;;;;;;6.20;61.63;96451.47;5015923;28;20294;-79
2022/03/15 06:19:14;;;;;;;5.57;1.83;;;;;;;6.17;61.83;96451.66;5004253;28;20543;-76
2022/03/15 06:21:40;;;;;;;5.13;1.87;;;;;;;6.31;61.11;96453.34;5032013;28;20658;-78
2022/03/15 06:24:08;;;;;;;3.23;1.53;;;;;;;6.32;61.27;96466.16;5032488;28;20197;-79
2022/03/15 06:26:35;;;;;;;3.77;1.70;;;;;;;6.34;61.19;96463.47;5017403;28;20193;-77
2022/03/15 06:29:02;;;;;;;5.40;1.90;;;;;;;6.29;61.32;96461.19;5033837;28;20182;-78
2022/03/15 06:31:28;;;;;;;5.07;2.27;;;;;;;6.41;61.32;96457.81;5017243;28;20544;-79
2022/03/15 06:33:53;;;;;;;2.37;1.40;;;;;;;6.45;61.18;96464.44;5017480;28;20209;-79
2022/03/15 06:36:19;;;;;;;5.83;1.93;;;;;;;6.42;61.38;96462.03;5023888;28;20204;-78
2022/03/15 06:38:44;;;;;;;4.97;1.60;;;;;;;6.45;61.56;96461.88;5036662;28;20177;-78
2022/03/15 06:41:12;;;;;;;6.07;1.63;;;;;;;6.45;61.77;96472.19;5018504;28;20184;-77
2022/03/15 06:43:39;;;;;;;3.03;1.80;;;;;;;6.53;61.79;96471.66;5051673;28;20241;-77
2022/03/15 06:46:05;;;;;;;3.57;1.50;;;;;;;6.58;61.64;96463.63;5018307;28;20189;-76
2022/03/15 06:48:30;;;;;;;3.87;1.70;;;;;;;6.63;61.29;96461.59;5035495;28;20173;-79
2022/03/15 06:50:56;;;;;;;5.30;1.73;;;;;;;6.65;61.81;96463.13;5018986;28;20181;-78
2022/03/15 06:53:21;;;;;;;5.20;1.97;;;;;;;6.68;61.89;96467.25;5033490;28;20215;-79
2022/03/15 06:55:47;;;;;;;5.10;2.20;;;;;;;6.71;61.44;96472.19;5016582;28;20186;-79
2022/03/15 06:58:12;;;;;;;4.13;1.90;;;;;;;6.80;61.28;96469.00;5050401;28;20213;-79
2022/03/15 07:00:37;;;;;;;5.43;2.20;;;;;;;6.83;61.38;96463.66;5016271;28;20213;-78
2022/03/15 07:03:03;;;;;;;8.20;2.80;;;;;;;6.74;62.05;96459.94;5015523;28;20633;-79
2022/03/15 07:05:29;;;;;;;5.07;2.20;;;;;;;6.80;61.96;96461.25;5016124;28;20626;-78
2022/03/15 07:07:54;;;;;;;2.87;1.80;;;;;;;6.81;62.34;96460.38;5033265;28;20189;-78
2022/03/15 07:10:20;;;;;;;4.27;1.87;;;;;;;6.82;62.47;96459.44;5019505;28;20182;-77
2022/03/15 07:12:46;;;;;;;4.33;1.97;;;;;;;6.74;62.60;96459.13;5019777;28;20225;-79
2022/03/15 07:15:11;;;;;;;5.47;1.60;;;;;;;6.74;62.42;96461.69;5037366;28;20240;-79
2022/03/15 07:17:36;;;;;;;4.37;1.87;;;;;;;6.76;62.27;96465.81;5036589;28;20768;-79
2022/03/15 07:20:03;;;;;;;3.20;2.20;;;;;;;6.79;62.40;96464.78;5037266;28;20225;-79
2022/03/15 07:22:28;;;;;;;4.87;2.30;;;;;;;6.75;62.03;96471.09;5036125;28;20224;-79
2022/03/15 07:24:53;;;;;;;6.40;3.63;;;;;;;6.86;61.70;96460.03;5037383;28;20233;-77
2022/03/15 07:27:20;;;;;;;4.87;2.70;;;;;;;6.86;61.46;96462.63;5037005;28;20235;-78
2022/03/15 07:29:45;;;;;;;4.30;2.27;;;;;;;6.82;61.06;96462.00;5020381;28;20193;-78
2022/03/15 07:32:10;;;;;;;7.23;1.73;;;;;;;6.76;62.10;96465.00;5019634;28;20185;-77
2022/03/15 07:34:35;;;;;;;3.50;2.00;;;;;;;6.76;62.54;96458.06;5037454;28;20540;-79
2022/03/15 07:37:01;;;;;;;4.93;1.90;;;;;;;6.82;62.69;96460.25;5038094;28;20198;-80
2022/03/15 07:39:26;;;;;;;7.83;2.70;;;;;;;6.81;63.04;96463.78;5037803;28;20542;-80
2022/03/15 07:41:52;;;;;;;3.90;1.90;;;;;;;6.82;63.29;96455.09;5020548;28;20190;-77
2022/03/15 07:44:18;;;;;;;3.20;2.00;;;;;;;6.93;62.81;96450.97;5020483;28;20212;-79
2022/03/15 07:46:48;;;;;;;3.37;1.90;;;;;;;6.98;62.96;96449.72;5037773;28;20178;-80
2022/03/15 07:49:15;;;;;;;5.43;2.17;;;;;;;7.03;63.56;96455.41;5021122;28;20201;-78
2022/03/15 07:51:40;;;;;;;3.17;1.67;;;;;;;6.97;63.27;96455.81;5036327;28;20214;-77
2022/03/15 07:54:06;;;;;;;4.70;2.07;;;;;;;7.05;62.72;96453.53;5036389;28;20680;-77
2022/03/15 07:56:31;;;;;;;3.53;1.70;;;;;;;7.14;62.96;96452.06;5054173;28;20653;-77
2022/03/15 07:58:56;;;;;;;12.53;3.03;;;;;;;7.19;62.57;96438.88;5020629;28;20687;-77
2022/03/15 08:01:21;;;;;;;5.53;2.00;;;;;;;7.28;62.58;96443.41;5036076;28;20186;-78
2022/03/15 08:03:47;;;;;;;3.67;2.20;;;;;;;7.35;62.81;96447.22;5038967;28;20201;-79
2022/03/15 08:06:12;;;;;;;6.60;3.10;;;;;;;7.40;62.87;96437.38;5044776;28;20192;-78
2022/03/15 08:08:37;;;;;;;12.07;3.00;;;;;;;7.42;63.12;96443.28;5041242;28;20627;-79
2022/03/15 08:11:06;;;;;;;4.53;1.93;;;;;;;7.45;62.79;96435.31;5060126;28;20198;-77
2022/03/15 08:13:33;;;;;;;5.50;2.07;;;;;;;7.47;63.09;96438.59;5056948;28;20669;-79
2022/03/15 08:15:58;;;;;;;4.60;1.80;;;;;;;7.44;62.75;96431.06;5020752;28;20661;-79
2022/03/15 08:18:23;;;;;;;3.37;1.80;;;;;;;7.66;61.76;96433.78;5036075;28;20194;-77
2022/03/15 08:20:49;;;;;;;3.57;2.00;;;;;;;7.70;61.19;96428.44;5035946;28;20178;-78
2022/03/15 08:23:14;;;;;;;6.63;1.93;;;;;;;7.86;59.74;96418.63;5035862;28;20186;-78
2022/03/15 08:25:39;;;;;;;4.23;2.60;;;;;;;7.88;60.61;96434.88;5053803;28;20189;-79
2022/03/15 08:28:05;;;;;;;3.77;2.30;;;;;;;7.90;61.01;96433.00;5036244;28;20186;-78
2022/03/15 08:30:31;;;;;;;3.00;1.97;;;;;;;7.97;61.60;96431.63;5053718;28;20181;-78
2022/03/15 08:32:56;;;;;;;6.20;3.37;;;;;;;8.18;61.23;96432.66;5018211;28;20180;-79
2022/03/15 08:35:22;;;;;;;3.93;1.80;;;;;;;8.17;60.27;96420.66;5019527;28;20208;-79
2022/03/15 08:37:51;;;;;;;4.23;1.70;;;;;;;8.13;62.06;96418.44;5036266;28;20197;-79
2022/03/15 08:40:17;;;;;;;3.57;2.00;;;;;;;8.05;63.24;96431.91;5019536;28;20187;-78
2022/03/15 08:42:43;;;;;;;5.03;2.83;;;;;;;7.97;62.65;96429.03;5019372;28;20240;-79
2022/03/15 08:45:10;;;;;;;4.37;2.70;;;;;;;8.03;61.73;96433.75;5019771;28;20197;-78
2022/03/15 08:47:36;;;;;;;4.30;1.90;;;;;;;8.14;61.41;96418.31;5053780;28;20200;-78
2022/03/15 08:50:01;;;;;;;4.07;2.10;;;;;;;8.04;62.43;96425.09;5020053;28;20638;-78
2022/03/15 08:52:27;;;;;;;4.90;2.33;;;;;;;7.88;64.07;96429.69;5035761;28;20206;-79
2022/03/15 08:54:52;;;;;;;5.13;3.60;;;;;;;7.85;64.38;96437.66;5019621;28;20221;-78
2022/03/15 08:57:17;;;;;;;5.67;2.50;;;;;;;7.92;65.67;96428.53;5035876;28;20216;-78
2022/03/15 08:59:43;;;;;;;7.40;6.13;;;;;;;7.82;67.65;96430.13;5036245;28;20261;-79
2022/03/15 09:02:12;;;;;;;7.13;5.07;;;;;;;7.95;68.67;96420.53;5035386;28;20638;-78
2022/03/15 09:04:37;;;;;;;4.47;4.03;;;;;;;7.94;69.90;96422.31;5018515;28;20205;-78
2022/03/15 09:07:03;;;;;;;5.23;4.37;;;;;;;7.98;71.24;96419.53;5035659;28;20190;-80
2022/03/15 09:09:28;;;;;;;10.40;9.30;;;;;;;7.85;72.53;96416.97;5019206;28;20194;-79
2022/03/15 09:11:53;;;;;;;11.77;7.70;;;;;;;8.04;72.33;96413.88;5019045;28;20178;-79
2022/03/15 09:14:19;;;;;;;7.60;4.73;;;;;;;8.07;73.37;96411.09;5053135;28;20193;-79
2022/03/15 09:16:44;;;;;;;7.87;5.73;;;;;;;8.06;74.52;96412.88;5018754;28;20205;-78
2022/03/15 09:19:11;;;;;;;10.67;9.63;;;;;;;7.89;74.63;96405.50;5053180;28;20637;-79
2022/03/15 09:21:36;;;;;;;7.67;5.43;;;;;;;7.78;77.04;96392.50;5018653;28;20192;-78
2022/03/15 09:24:01;;;;;;;8.90;7.23;;;;;;;7.93;78.26;96396.56;5035791;28;20198;-77
2022/03/15 09:26:27;;;;;;;9.93;6.53;;;;;;;7.82;79.01;96386.16;5018212;28;20216;-76
2022/03/15 09:28:52;;;;;;;5.97;2.77;;;;;;;7.82;79.87;96379.25;5033620;28;20320;-75
2022/03/15 09:31:20;;;;;;;3.87;2.80;;;;;;;7.74;80.54;96367.78;5033211;28;20181;-78
2022/03/15 09:33:45;;;;;;;3.60;2.70;;;;;;;7.70;81.38;96366.38;5018972;28;20198;-77
2022/03/15 09:36:12;;;;;;;3.17;2.57;;;;;;;7.47;82.77;96368.00;5017846;28;20178;-77
2022/03/15 09:38:38;;;;;;;5.07;3.70;;;;;;;7.55;82.86;96366.53;5026565;28;20178;-78
2022/03/15 09:41:05;;;;;;;6.50;3.23;;;;;;;7.49;84.13;96360.97;5034842;28;20260;-77
2022/03/15 09:43:40;;;;;;;6.87;4.47;;;;;;;7.37;84.61;96353.16;5017647;28;20632;-78
2022/03/15 09:46:07;;;;;;;3.83;3.47;;;;;;;7.29;85.45;96346.88;5034800;28;20198;-78
2022/03/15 09:48:32;;;;;;;3.80;2.10;;;;;;;7.29;86.32;96327.03;5018160;28;20244;-78
2022/03/15 09:50:58;;;;;;;6.50;3.90;;;;;;;7.30;86.37;96318.34;5018329;28;20178;-79
2022/03/15 09:53:23;;;;;;;6.17;4.03;;;;;;;7.32;87.23;96328.56;5017674;28;20221;-79
2022/03/15 09:55:49;;;;;;;5.03;4.20;;;;;;;7.23;87.34;96319.69;5017842;28;20199;-78
2022/03/15 09:58:22;;;;;;;5.93;3.30;;;;;;;7.23;87.89;96316.28;5017622;28;20209;-78
2022/03/15 10:00:51;;;;;;;3.70;2.50;;;;;;;7.27;88.72;96312.56;5018244;28;20190;-76
2022/03/15 10:03:16;;;;;;;2.80;2.20;;;;;;;7.27;89.23;96310.81;5013817;28;20261;-78
2022/03/15 10:05:42;;;;;;;5.43;3.20;;;;;;;7.27;89.43;96300.47;5011947;28;20645;-79
2022/03/15 10:08:07;;;;;;;5.90;2.90;;;;;;;7.14;89.57;96298.84;5034256;28;20261;-79
2022/03/15 10:10:32;;;;;;;3.83;2.57;;;;;;;7.08;89.67;96292.38;5034402;28;20194;-79
2022/03/15 10:12:58;;;;;;;3.37;2.20;;;;;;;7.09;90.52;96292.28;5016790;28;20213;-79
2022/03/15 10:15:24;;;;;;;3.87;2.33;;;;;;;7.09;91.12;96292.28;5011378;28;20183;-76
2022/03/15 10:17:55;;;;;;;2.83;2.43;;;;;;;7.06;91.26;96289.88;5027135;28;20612;-79
2022/03/15 10:20:28;;;;;;;4.97;2.47;;;;;;;7.05;92.03;96282.25;5017748;28;20277;-78
2022/03/15 10:22:58;;;;;;;4.13;2.70;;;;;;;7.02;91.31;96279.91;5018345;28;20548;-78
2022/03/15 10:25:25;;;;;;;6.30;2.43;;;;;;;7.01;92.25;96281.66;5034038;28;20228;-78
2022/03/15 10:27:59;;;;;;;4.50;2.40;;;;;;;7.02;92.83;96282.47;5016558;28;20185;-77
2022/03/15 10:30:27;;;;;;;6.40;2.83;;;;;;;6.98;93.10;96273.28;5017119;28;20239;-76
2022/03/15 10:32:53;;;;;;;7.03;4.77;;;;;;;6.93;93.00;96271.03;5017039;28;20219;-78
2022/03/15 10:35:20;;;;;;;3.77;2.70;;;;;;;6.99;93.50;96268.03;5033798;28;20740;-79
2022/03/15 10:37:46;;;;;;;3.33;2.50;;;;;;;7.05;93.00;96259.84;5017350;28;20297;-77
2022/03/15 10:40:11;;;;;;;3.47;2.47;;;;;;;7.05;93.10;96259.84;5017461;28;20217;-77
2022/03/15 10:42:42;;;;;;;4.17;2.83;;;;;;;7.07;92.83;96259.75;5017259;28;20627;-78
2022/03/15 10:45:34;;;;;;;6.70;3.00;;;;;;;7.11;93.33;96248.25;5033287;28;20224;-78
2022/03/15 10:48:00;;;;;;;6.13;2.60;;;;;;;7.12;93.81;96238.75;5010949;28;20193;-77
2022/03/15 10:50:26;;;;;;;4.50;3.00;;;;;;;7.06;93.58;96237.41;5033547;28;20797;-77
2022/03/15 10:52:53;;;;;;;5.83;3.17;;;;;;;7.09;93.74;96230.28;5034047;28;20186;-77
2022/03/15 10:55:25;;;;;;;3.67;2.77;;;;;;;7.01;92.89;96227.44;5018573;28;20672;-78
2022/03/15 10:58:05;;;;;;;5.00;2.83;;;;;;;7.03;93.57;96209.22;5033462;28;20214;-78
2022/03/15 11:00:37;;;;;;;4.57;2.80;;;;;;;7.02;93.35;96217.91;5017579;28;20197;-78
2022/03/15 11:03:06;;;;;;;4.57;2.70;;;;;;;7.00;93.20;96212.03;5016408;28;20254;-78
2022/03/15 11:05:33;;;;;;;4.97;2.83;;;;;;;6.91;92.82;96207.53;5014777;28;20255;-78
2022/03/15 11:08:06;;;;;;;3.27;2.40;;;;;;;6.90;93.78;96204.13;5051315;28;20182;-77
2022/03/15 11:10:32;;;;;;;3.97;2.80;;;;;;;6.98;93.52;96212.16;5047573;28;20301;-77
2022/03/15 11:13:02;;;;;;;5.90;3.07;;;;;;;6.91;93.84;96204.94;5003519;28;20313;-79
2022/03/15 11:15:30;;;;;;;3.47;2.67;;;;;;;6.94;93.24;96190.06;5030754;28;20189;-79
2022/03/15 11:18:02;;;;;;;3.37;2.67;;;;;;;7.05;93.14;96191.88;5011772;28;20210;-79
2022/03/15 11:20:46;;;;;;;3.30;2.80;;;;;;;7.00;93.31;96196.56;5031760;28;20194;-78
2022/03/15 11:23:14;;;;;;;4.17;3.17;;;;;;;7.02;93.20;96186.94;5018834;28;20590;-78
2022/03/15 11:25:40;;;;;;;6.13;2.97;;;;;;;7.04;93.83;96190.22;5035821;28;20189;-78
2022/03/15 11:28:14;;;;;;;3.70;2.87;;;;;;;6.92;93.76;96185.94;5050792;28;20178;-80
2022/03/15 11:30:41;;;;;;;5.37;2.97;;;;;;;7.03;93.51;96191.97;5000995;28;20182;-80
2022/03/15 11:33:08;;;;;;;7.27;3.07;;;;;;;6.97;93.98;96182.06;5013821;28;20194;-76
2022/03/15 11:35:35;;;;;;;3.57;3.03;;;;;;;7.02;93.91;96185.16;5026013;28;20185;-77
2022/03/15 11:38:04;;;;;;;3.00;2.70;;;;;;;7.04;93.88;96177.31;5037465;28;20214;-79